Česky Dansk Deutsch English Español Suomi Français Magyar Italiano Nederlands norsk Polski Português svenska Türkçe

 

Het Weer

Merzifon (Türkei)

20:50, 17 Juli 2016 (GMT)

NWNNE
WE
SWSSE
Home            
Merzifon Samsun Samsun / Carsamba Tokat Sivas Kayseri / Erkilet Ankara / Esenboga Nevsehir Ankara / Guvercin Lik Ankara / Etimesgut Murted Tur-Afb Zonguldak Malatya / Erhac Trabzon Erzincan Sivrihisar Elazig Konya Adana / Incirlik Adana / Sakirpasa Eskisehir Simferopol Gaziantep

Om een weerknop op uw website of weblog te plaatsen, copieer onderstaande code en plak die in uw pagina. In het eerste vakje staat HTML-code, in het tweede vakje UBB-code.


Add to Google

Details

Wind speed:2 bf, 4 kn, 2.1 m/s, 4.6 miles/h, 7.4 km/h
Wind direction:W, 280°
Sichtweite:Weiter als 10000 m, 10 km, 32800 ft, 6.2 miles
Clouds:CAVOC
Temperatur:20°C, 68°F
Taupunkt:8°C, 46°F
Luftdruck:1007 hPa, 755.3 mmHg, 29.74 inHg, 0.994 atm
Relative Luftfeuchtigkeit:45.9 %
METAR:LTAP 172050Z 28004KT CAVOK 20/08 Q1007 NOSIG

Snelkoppelingen

Actuele weersinformatie van de hele wereld. Voeg locaties toe met het plus (+) symbool. Deze snelkoppelingen kunnen worden toegevoegd aan Google.

Lid van de Technetium groep

website free tracking
StatCounter NetStat W3C Validator

19-05-2022 05:58:02
astro.technetium.be money.technetium.be phote.technetium.be tafeltennistafel.technetium.be www.ligfiets.net